createdAt,value
2018-12-19T00:00:59.408Z,3.00
2018-12-19T00:03:27.646Z,2.77
2018-12-19T00:05:55.886Z,2.37
2018-12-19T00:08:24.120Z,2.75
2018-12-19T00:10:52.306Z,2.75
2018-12-19T00:13:20.819Z,3.17
2018-12-19T00:15:49.002Z,2.20
2018-12-19T00:18:17.182Z,3.05
2018-12-19T00:20:45.421Z,2.60
2018-12-19T00:23:13.747Z,2.60
2018-12-19T00:25:42.081Z,3.13
2018-12-19T00:28:10.282Z,2.62
2018-12-19T00:30:38.466Z,2.93
2018-12-19T00:33:06.693Z,3.00
2018-12-19T00:35:34.876Z,2.60
2018-12-19T00:38:03.177Z,3.20
2018-12-19T00:40:31.359Z,3.20
2018-12-19T00:42:59.589Z,3.05
2018-12-19T00:45:27.802Z,2.52
2018-12-19T00:47:55.968Z,2.52
2018-12-19T00:50:24.257Z,2.95
2018-12-19T00:52:52.436Z,2.62
2018-12-19T00:55:20.734Z,2.80
2018-12-19T00:57:48.977Z,2.70
2018-12-19T01:00:17.270Z,3.05
2018-12-19T01:02:45.538Z,3.17
2018-12-19T01:05:13.710Z,3.00
2018-12-19T01:07:41.941Z,2.55
2018-12-19T01:10:10.251Z,2.87
2018-12-19T01:12:38.470Z,2.42
2018-12-19T01:15:07.168Z,2.85
2018-12-19T01:17:35.351Z,2.72
2018-12-19T01:20:03.831Z,2.58
2018-12-19T01:22:32.055Z,2.30
2018-12-19T01:25:00.269Z,2.65
2018-12-19T01:27:28.478Z,2.90
2018-12-19T01:29:56.701Z,2.35
2018-12-19T01:32:24.909Z,2.72
2018-12-19T01:34:53.123Z,2.80
2018-12-19T01:37:21.294Z,2.97
2018-12-19T01:39:49.486Z,2.40
2018-12-19T01:42:17.691Z,2.22
2018-12-19T01:44:45.849Z,3.05
2018-12-19T01:47:14.034Z,2.75
2018-12-19T01:49:42.221Z,2.95
2018-12-19T01:52:10.401Z,2.57
2018-12-19T01:54:38.596Z,2.50
2018-12-19T01:57:06.927Z,2.80
2018-12-19T01:59:35.151Z,3.08
2018-12-19T02:02:03.379Z,2.63
2018-12-19T02:04:31.686Z,2.45
2018-12-19T02:06:59.918Z,3.00
2018-12-19T02:09:28.948Z,2.83
2018-12-19T02:11:57.449Z,3.30
2018-12-19T02:14:25.644Z,2.58
2018-12-19T02:16:53.914Z,2.43
2018-12-19T02:19:22.113Z,2.50
2018-12-19T02:21:50.281Z,2.93
2018-12-19T02:24:18.461Z,2.83
2018-12-19T02:26:46.676Z,2.40
2018-12-19T02:29:16.123Z,2.70
2018-12-19T02:31:44.510Z,2.40
2018-12-19T02:34:13.102Z,2.75
2018-12-19T02:36:41.490Z,2.57
2018-12-19T02:39:09.809Z,2.60
2018-12-19T02:41:38.016Z,2.35
2018-12-19T02:44:06.255Z,2.83
2018-12-19T02:46:34.511Z,2.70
2018-12-19T02:49:02.767Z,2.67
2018-12-19T02:51:30.983Z,2.50
2018-12-19T02:53:59.231Z,2.40
2018-12-19T02:56:27.425Z,2.40
2018-12-19T02:58:55.643Z,2.98
2018-12-19T03:01:23.860Z,2.93
2018-12-19T03:03:52.078Z,2.67
2018-12-19T03:06:20.225Z,2.43
2018-12-19T03:08:48.460Z,2.72
2018-12-19T03:11:16.839Z,2.45
2018-12-19T03:13:47.419Z,3.00
2018-12-19T03:16:15.776Z,2.80
2018-12-19T03:18:43.959Z,2.75
2018-12-19T03:21:12.260Z,2.90
2018-12-19T03:23:40.428Z,2.95
2018-12-19T03:26:08.641Z,2.70
2018-12-19T03:28:36.846Z,2.72
2018-12-19T03:31:07.945Z,3.03
2018-12-19T03:33:36.166Z,2.12
2018-12-19T03:36:04.451Z,2.50
2018-12-19T03:38:32.680Z,2.70
2018-12-19T03:41:00.993Z,3.07
2018-12-19T03:43:29.274Z,2.80
2018-12-19T03:45:57.497Z,2.40
2018-12-19T03:48:31.119Z,2.45
2018-12-19T03:50:59.323Z,2.90
2018-12-19T03:53:28.318Z,2.95
2018-12-19T03:55:56.655Z,2.70
2018-12-19T03:58:24.861Z,2.70
2018-12-19T04:00:53.055Z,2.43
2018-12-19T04:03:21.249Z,3.00
2018-12-19T04:05:49.417Z,3.10
2018-12-19T04:08:17.638Z,2.70
2018-12-19T04:10:45.827Z,3.08
2018-12-19T04:13:14.083Z,3.02
2018-12-19T04:15:42.249Z,3.17
2018-12-19T04:18:10.436Z,3.50
2018-12-19T04:20:38.714Z,2.90
2018-12-19T04:23:06.902Z,3.50
2018-12-19T04:25:35.106Z,3.07
2018-12-19T04:28:03.301Z,3.67
2018-12-19T04:30:31.524Z,3.20
2018-12-19T04:32:59.785Z,2.98
2018-12-19T04:35:27.960Z,3.15
2018-12-19T04:37:56.218Z,3.20
2018-12-19T04:40:24.478Z,3.00
2018-12-19T04:42:52.759Z,2.85
2018-12-19T04:45:21.052Z,3.10
2018-12-19T04:47:49.302Z,3.17
2018-12-19T04:50:17.538Z,2.90
2018-12-19T04:52:45.717Z,3.62
2018-12-19T04:55:14.038Z,2.58
2018-12-19T04:57:42.253Z,3.05
2018-12-19T05:00:10.466Z,2.77
2018-12-19T05:02:38.707Z,2.92
2018-12-19T05:05:07.080Z,3.10
2018-12-19T05:07:35.318Z,2.45
2018-12-19T05:10:03.837Z,2.60
2018-12-19T05:12:32.128Z,2.67
2018-12-19T05:15:00.325Z,2.50
2018-12-19T05:17:28.525Z,3.00
2018-12-19T05:19:56.961Z,2.50
2018-12-19T05:22:25.162Z,2.53
2018-12-19T05:24:53.396Z,2.30
2018-12-19T05:27:21.626Z,2.93
2018-12-19T05:29:49.834Z,2.80
2018-12-19T05:32:18.075Z,2.85
2018-12-19T05:34:46.307Z,2.83
2018-12-19T05:37:14.599Z,2.60
2018-12-19T05:39:42.837Z,2.70
2018-12-19T05:42:11.033Z,2.50
2018-12-19T05:44:39.242Z,2.80
2018-12-19T05:47:08.525Z,2.80
2018-12-19T05:49:37.058Z,2.30
2018-12-19T05:52:05.250Z,2.47
2018-12-19T05:54:33.587Z,2.40
2018-12-19T05:57:01.985Z,2.67
2018-12-19T05:59:31.665Z,2.35
2018-12-19T06:01:59.958Z,2.55
2018-12-19T06:04:28.146Z,2.15
2018-12-19T06:06:56.391Z,2.03
2018-12-19T06:09:24.570Z,2.40
2018-12-19T06:11:52.849Z,2.20
2018-12-19T06:14:21.043Z,2.40
2018-12-19T06:16:49.374Z,1.80
2018-12-19T06:19:17.624Z,1.98
2018-12-19T06:21:45.814Z,2.00
2018-12-19T06:24:14.068Z,1.72
2018-12-19T06:26:42.278Z,1.90
2018-12-19T06:29:10.503Z,2.30
2018-12-19T06:31:38.677Z,2.10
2018-12-19T06:34:07.016Z,2.60
2018-12-19T06:36:35.226Z,1.93
2018-12-19T06:39:05.512Z,2.00
2018-12-19T06:41:33.704Z,2.08
2018-12-19T06:44:02.061Z,1.82
2018-12-19T06:46:30.226Z,2.17
2018-12-19T06:48:58.413Z,2.42
2018-12-19T06:51:26.623Z,2.30
2018-12-19T06:53:54.803Z,2.45
2018-12-19T06:56:22.997Z,3.30
2018-12-19T06:58:51.185Z,3.58
2018-12-19T07:01:19.397Z,3.67
2018-12-19T07:03:47.597Z,3.45
2018-12-19T07:06:15.943Z,2.70
2018-12-19T07:08:44.179Z,2.08
2018-12-19T07:11:12.413Z,2.63
2018-12-19T07:13:40.606Z,2.52
2018-12-19T07:16:08.896Z,2.50
2018-12-19T07:18:37.293Z,2.30
2018-12-19T07:21:05.648Z,2.37
2018-12-19T07:23:33.813Z,2.10
2018-12-19T07:26:02.001Z,2.43
2018-12-19T07:28:30.190Z,2.52
2018-12-19T07:30:58.394Z,2.33
2018-12-19T07:33:26.566Z,2.00
2018-12-19T07:35:54.871Z,2.37
2018-12-19T07:38:23.090Z,2.20
2018-12-19T07:40:51.264Z,2.27
2018-12-19T07:43:19.434Z,2.25
2018-12-19T07:45:47.611Z,2.10
2018-12-19T07:48:15.877Z,2.20
2018-12-19T07:50:44.111Z,2.30
2018-12-19T07:53:12.371Z,2.25
2018-12-19T07:55:41.341Z,2.23
2018-12-19T07:58:09.551Z,2.62
2018-12-19T08:00:37.821Z,2.45
2018-12-19T08:03:06.082Z,2.33
2018-12-19T08:05:34.299Z,2.07
2018-12-19T08:08:02.598Z,2.22
2018-12-19T08:10:30.825Z,2.22
2018-12-19T08:12:59.091Z,2.22
2018-12-19T08:15:27.402Z,2.30
2018-12-19T08:17:55.594Z,2.15
2018-12-19T08:20:23.802Z,2.15
2018-12-19T08:22:52.061Z,2.02
2018-12-19T08:25:20.273Z,1.77
2018-12-19T08:27:48.516Z,1.55
2018-12-19T08:30:16.697Z,1.70
2018-12-19T08:32:44.941Z,1.90
2018-12-19T08:35:13.154Z,1.90
2018-12-19T08:37:41.369Z,1.70
2018-12-19T08:40:09.678Z,1.70
2018-12-19T08:42:37.880Z,1.50
2018-12-19T08:45:07.094Z,1.65
2018-12-19T08:47:35.261Z,1.55
2018-12-19T08:50:05.009Z,1.32
2018-12-19T08:52:33.423Z,1.57
2018-12-19T08:55:01.612Z,2.00
2018-12-19T08:57:29.854Z,1.70
2018-12-19T08:59:58.038Z,1.60
2018-12-19T09:02:26.238Z,1.77
2018-12-19T09:04:54.418Z,1.52
2018-12-19T09:07:22.582Z,1.77
2018-12-19T09:09:50.840Z,1.75
2018-12-19T09:12:19.300Z,1.80
2018-12-19T09:14:47.503Z,1.65
2018-12-19T09:17:15.767Z,2.00
2018-12-19T09:19:44.262Z,1.40
2018-12-19T09:22:12.545Z,1.60
2018-12-19T09:24:40.750Z,1.60
2018-12-19T09:27:08.962Z,1.37
2018-12-19T09:29:37.612Z,1.72
2018-12-19T09:32:05.955Z,1.60
2018-12-19T09:34:34.146Z,1.30
2018-12-19T09:37:02.335Z,1.90
2018-12-19T09:39:30.585Z,1.60
2018-12-19T09:41:58.806Z,1.90
2018-12-19T09:44:27.022Z,1.70
2018-12-19T09:46:55.234Z,1.87
2018-12-19T09:49:23.407Z,1.50
2018-12-19T09:51:51.663Z,1.40
2018-12-19T09:54:19.842Z,1.45
2018-12-19T09:56:48.194Z,1.50
2018-12-19T09:59:17.260Z,1.35
2018-12-19T10:01:45.479Z,1.50
2018-12-19T10:04:13.718Z,1.40
2018-12-19T10:06:41.938Z,1.72
2018-12-19T10:09:14.831Z,1.50
2018-12-19T10:11:40.367Z,1.90
2018-12-19T10:14:08.564Z,1.65
2018-12-19T10:16:36.800Z,1.30
2018-12-19T10:19:05.095Z,1.60
2018-12-19T10:21:33.291Z,2.17
2018-12-19T10:24:01.578Z,1.30
2018-12-19T10:26:29.775Z,1.30
2018-12-19T10:28:58.057Z,1.22
2018-12-19T10:31:26.467Z,1.60
2018-12-19T10:33:54.666Z,1.20
2018-12-19T10:36:28.292Z,1.32
2018-12-19T10:38:56.586Z,1.30
2018-12-19T10:41:25.621Z,1.20
2018-12-19T10:43:54.086Z,1.20
2018-12-19T10:46:22.490Z,1.20
2018-12-19T10:48:50.747Z,1.20
2018-12-19T10:51:19.049Z,1.13
2018-12-19T10:53:47.410Z,1.10
2018-12-19T10:56:16.028Z,1.00
2018-12-19T10:58:44.314Z,0.90
2018-12-19T11:01:12.648Z,1.00
2018-12-19T11:03:40.857Z,0.90
2018-12-19T11:06:09.050Z,1.23
2018-12-19T11:08:37.348Z,1.10
2018-12-19T11:11:05.566Z,1.20
2018-12-19T11:13:33.776Z,1.20
2018-12-19T11:16:02.004Z,1.00
2018-12-19T11:18:30.211Z,1.00
2018-12-19T11:20:58.500Z,1.00
2018-12-19T11:23:26.702Z,1.02
2018-12-19T11:25:54.961Z,1.33
2018-12-19T11:28:23.203Z,0.70
2018-12-19T11:30:51.392Z,0.93
2018-12-19T11:33:19.605Z,0.95
2018-12-19T11:35:47.890Z,0.90
2018-12-19T11:38:16.172Z,0.85
2018-12-19T11:40:44.349Z,0.83
2018-12-19T11:43:12.618Z,0.80
2018-12-19T11:45:40.833Z,0.70
2018-12-19T11:48:09.157Z,0.80
2018-12-19T11:50:37.369Z,0.57
2018-12-19T11:53:05.610Z,0.75
2018-12-19T11:55:33.843Z,0.90
2018-12-19T11:58:02.038Z,0.60
2018-12-19T12:00:30.231Z,0.60
2018-12-19T12:02:58.411Z,0.60
2018-12-19T12:05:26.638Z,0.50
2018-12-19T12:07:54.797Z,0.50
2018-12-19T12:10:23.154Z,0.60
2018-12-19T12:12:51.350Z,0.70
2018-12-19T12:15:19.638Z,0.60
2018-12-19T12:17:47.834Z,0.50
2018-12-19T12:20:16.072Z,0.60
2018-12-19T12:22:44.307Z,0.70
2018-12-19T12:25:12.535Z,0.50
2018-12-19T12:27:40.753Z,0.70
2018-12-19T12:30:09.145Z,0.70
2018-12-19T12:32:37.318Z,0.47
2018-12-19T12:35:06.851Z,0.62
2018-12-19T12:37:35.061Z,0.45
2018-12-19T12:40:03.489Z,0.70
2018-12-19T12:42:31.836Z,0.65
2018-12-19T12:45:00.322Z,0.80
2018-12-19T12:47:28.596Z,0.73
2018-12-19T12:49:56.774Z,0.60
2018-12-19T12:52:25.002Z,0.63
2018-12-19T12:54:53.190Z,0.90
2018-12-19T12:57:21.418Z,0.70
2018-12-19T12:59:49.643Z,0.70
2018-12-19T13:02:17.795Z,0.70
2018-12-19T13:04:46.017Z,0.95
2018-12-19T13:07:14.217Z,0.90
2018-12-19T13:09:42.449Z,0.95
2018-12-19T13:12:10.673Z,0.82
2018-12-19T13:14:38.854Z,0.80
2018-12-19T13:17:07.058Z,0.90
2018-12-19T13:19:35.379Z,0.80
2018-12-19T13:22:03.646Z,0.90
2018-12-19T13:24:31.908Z,0.78
2018-12-19T13:27:00.974Z,0.80
2018-12-19T13:29:30.202Z,0.95
2018-12-19T13:31:59.334Z,0.80
2018-12-19T13:34:27.529Z,0.55
2018-12-19T13:36:55.722Z,0.63
2018-12-19T13:39:24.051Z,0.70
2018-12-19T13:41:52.330Z,0.77
2018-12-19T13:44:20.530Z,0.70
2018-12-19T13:46:48.712Z,1.00
2018-12-19T13:49:16.962Z,0.70
2018-12-19T13:51:45.151Z,0.67
2018-12-19T13:54:13.337Z,0.80
2018-12-19T13:56:41.663Z,0.63
2018-12-19T13:59:09.971Z,0.60
2018-12-19T14:01:38.180Z,0.80
2018-12-19T14:04:06.398Z,0.75
2018-12-19T14:06:34.686Z,0.80
2018-12-19T14:09:04.182Z,0.63
2018-12-19T14:11:32.393Z,0.93
2018-12-19T14:14:00.593Z,0.80
2018-12-19T14:16:28.784Z,0.93
2018-12-19T14:18:57.012Z,0.85
2018-12-19T14:21:25.167Z,0.70
2018-12-19T14:23:53.359Z,0.80
2018-12-19T14:26:21.566Z,0.77
2018-12-19T14:28:49.755Z,0.62
2018-12-19T14:31:17.943Z,0.60
2018-12-19T14:33:46.153Z,0.70
2018-12-19T14:36:14.383Z,1.13
2018-12-19T14:38:42.839Z,1.02
2018-12-19T14:41:11.301Z,0.87
2018-12-19T14:43:39.481Z,0.60
2018-12-19T14:46:07.707Z,0.90
2018-12-19T14:48:35.937Z,0.75
2018-12-19T14:51:04.207Z,0.70
2018-12-19T14:53:32.404Z,0.80
2018-12-19T14:56:00.598Z,0.80
2018-12-19T14:58:28.810Z,0.70
2018-12-19T15:00:57.015Z,0.80
2018-12-19T15:03:25.330Z,0.90
2018-12-19T15:05:53.562Z,1.27
2018-12-19T15:08:21.854Z,0.68
2018-12-19T15:10:50.063Z,0.80
2018-12-19T15:13:18.262Z,0.70
2018-12-19T15:15:50.749Z,0.80
2018-12-19T15:18:18.945Z,1.22
2018-12-19T15:20:47.138Z,1.20
2018-12-19T15:23:15.481Z,0.82
2018-12-19T15:25:43.766Z,0.80
2018-12-19T15:28:11.966Z,1.00
2018-12-19T15:30:40.418Z,0.67
2018-12-19T15:33:08.700Z,1.00
2018-12-19T15:35:36.909Z,1.20
2018-12-19T15:38:05.162Z,0.98
2018-12-19T15:40:33.336Z,1.10
2018-12-19T15:43:01.555Z,0.98
2018-12-19T15:45:29.788Z,1.23
2018-12-19T15:47:57.972Z,0.85
2018-12-19T15:50:26.194Z,1.47
2018-12-19T15:52:54.418Z,1.15
2018-12-19T15:55:22.625Z,1.40
2018-12-19T15:57:50.785Z,1.42
2018-12-19T16:00:19.062Z,1.32
2018-12-19T16:02:47.254Z,1.15
2018-12-19T16:05:15.421Z,1.20
2018-12-19T16:07:43.722Z,1.10
2018-12-19T16:10:12.156Z,1.02
2018-12-19T16:12:40.378Z,1.40
2018-12-19T16:15:09.880Z,1.42
2018-12-19T16:17:38.103Z,1.30
2018-12-19T16:20:08.462Z,1.30
2018-12-19T16:22:36.686Z,1.20
2018-12-19T16:25:05.194Z,1.40
2018-12-19T16:27:33.424Z,1.40
2018-12-19T16:30:01.663Z,1.30
2018-12-19T16:32:29.875Z,1.43
2018-12-19T16:34:58.075Z,1.40
2018-12-19T16:37:26.297Z,1.40
2018-12-19T16:39:54.515Z,1.55
2018-12-19T16:42:22.713Z,1.13
2018-12-19T16:44:50.946Z,1.40
2018-12-19T16:47:19.149Z,1.30
2018-12-19T16:49:47.430Z,1.35
2018-12-19T16:52:15.765Z,1.33
2018-12-19T16:54:44.035Z,1.32
2018-12-19T16:57:12.199Z,1.27
2018-12-19T16:59:40.687Z,1.60
2018-12-19T17:02:08.850Z,1.40
2018-12-19T17:04:37.138Z,1.37
2018-12-19T17:07:05.367Z,1.43
2018-12-19T17:09:33.682Z,1.50
2018-12-19T17:12:01.867Z,1.60
2018-12-19T17:14:30.066Z,1.52
2018-12-19T17:16:58.253Z,1.10
2018-12-19T17:19:26.437Z,1.42
2018-12-19T17:21:54.625Z,1.50
2018-12-19T17:24:27.129Z,1.52
2018-12-19T17:26:55.452Z,2.67
2018-12-19T17:29:24.881Z,1.40
2018-12-19T17:31:53.060Z,1.42
2018-12-19T17:34:21.366Z,1.67
2018-12-19T17:36:49.550Z,2.07
2018-12-19T17:39:17.739Z,1.60
2018-12-19T17:41:45.974Z,2.50
2018-12-19T17:44:14.149Z,1.92
2018-12-19T17:46:42.342Z,1.60
2018-12-19T17:49:10.670Z,1.90
2018-12-19T17:51:38.835Z,2.53
2018-12-19T17:54:07.059Z,1.92
2018-12-19T17:56:35.229Z,1.97
2018-12-19T17:59:03.467Z,3.75
2018-12-19T18:01:31.720Z,2.00
2018-12-19T18:04:00.054Z,1.85
2018-12-19T18:06:28.225Z,1.53
2018-12-19T18:08:56.532Z,1.98
2018-12-19T18:11:24.773Z,2.00
2018-12-19T18:13:53.236Z,2.00
2018-12-19T18:16:21.458Z,2.60
2018-12-19T18:18:49.698Z,1.90
2018-12-19T18:21:17.865Z,1.90
2018-12-19T18:23:46.077Z,1.80
2018-12-19T18:26:14.235Z,2.13
2018-12-19T18:28:42.434Z,2.75
2018-12-19T18:31:10.645Z,2.03
2018-12-19T18:33:38.838Z,2.22
2018-12-19T18:36:07.183Z,2.03
2018-12-19T18:38:35.450Z,1.82
2018-12-19T18:41:03.667Z,2.00
2018-12-19T18:43:31.950Z,3.50
2018-12-19T18:46:00.244Z,2.30
2018-12-19T18:48:28.472Z,2.50
2018-12-19T18:50:56.778Z,2.43
2018-12-19T18:53:31.416Z,2.10
2018-12-19T18:55:59.764Z,2.63
2018-12-19T18:58:27.950Z,2.45
2018-12-19T19:00:56.357Z,2.40
2018-12-19T19:03:24.558Z,2.25
2018-12-19T19:05:52.834Z,2.53
2018-12-19T19:08:21.096Z,2.58
2018-12-19T19:10:49.321Z,2.07
2018-12-19T19:13:19.836Z,2.55
2018-12-19T19:15:47.768Z,2.50
2018-12-19T19:18:15.972Z,2.60
2018-12-19T19:20:44.190Z,2.40
2018-12-19T19:23:12.374Z,2.45
2018-12-19T19:25:40.606Z,2.53
2018-12-19T19:28:08.968Z,2.75
2018-12-19T19:30:37.237Z,2.50
2018-12-19T19:33:05.440Z,3.15
2018-12-19T19:35:33.654Z,2.50
2018-12-19T19:38:01.916Z,2.60
2018-12-19T19:40:30.136Z,2.13
2018-12-19T19:42:58.336Z,2.50
2018-12-19T19:45:26.502Z,2.50
2018-12-19T19:47:54.737Z,3.33
2018-12-19T19:50:23.067Z,2.95
2018-12-19T19:52:51.275Z,2.85
2018-12-19T19:55:19.511Z,2.65
2018-12-19T19:57:47.698Z,3.33
2018-12-19T20:00:20.177Z,2.62
2018-12-19T20:02:48.357Z,2.50
2018-12-19T20:05:16.577Z,2.33
2018-12-19T20:07:44.783Z,3.02
2018-12-19T20:10:13.098Z,2.67
2018-12-19T20:12:41.376Z,2.58
2018-12-19T20:15:09.658Z,3.02
2018-12-19T20:17:37.878Z,2.72
2018-12-19T20:20:06.958Z,2.83
2018-12-19T20:22:35.335Z,3.05
2018-12-19T20:25:03.729Z,3.02
2018-12-19T20:27:31.886Z,3.40
2018-12-19T20:30:00.116Z,3.08
2018-12-19T20:32:28.464Z,2.87
2018-12-19T20:34:56.654Z,3.17
2018-12-19T20:37:24.903Z,2.73
2018-12-19T20:39:53.113Z,3.12
2018-12-19T20:42:21.294Z,3.03
2018-12-19T20:44:49.478Z,4.37
2018-12-19T20:47:17.707Z,3.20
2018-12-19T20:49:46.011Z,3.40
2018-12-19T20:52:14.192Z,3.60
2018-12-19T20:54:42.470Z,3.33
2018-12-19T20:57:10.756Z,3.10
2018-12-19T20:59:39.282Z,3.58
2018-12-19T21:02:07.682Z,3.50
2018-12-19T21:04:35.885Z,3.87
2018-12-19T21:07:04.186Z,3.70
2018-12-19T21:09:32.414Z,3.80
2018-12-19T21:12:00.731Z,3.53
2018-12-19T21:14:28.981Z,3.90
2018-12-19T21:17:02.877Z,3.93
2018-12-19T21:19:31.163Z,3.80
2018-12-19T21:21:59.398Z,3.80
2018-12-19T21:24:27.687Z,4.37
2018-12-19T21:26:56.000Z,3.90
2018-12-19T21:29:25.507Z,4.03
2018-12-19T21:31:53.744Z,4.47
2018-12-19T21:34:22.069Z,4.65
2018-12-19T21:36:50.349Z,4.47
2018-12-19T21:39:18.637Z,4.42
2018-12-19T21:41:46.867Z,5.23
2018-12-19T21:44:15.153Z,5.55
2018-12-19T21:46:43.464Z,4.57
2018-12-19T21:49:11.669Z,5.03
2018-12-19T21:51:39.897Z,4.60
2018-12-19T21:54:08.299Z,5.42
2018-12-19T21:56:36.492Z,4.90
2018-12-19T21:59:04.849Z,4.17
2018-12-19T22:01:33.338Z,5.15
2018-12-19T22:04:01.596Z,4.97
2018-12-19T22:06:29.861Z,4.57
2018-12-19T22:11:32.643Z,4.30
2018-12-19T22:14:00.960Z,4.20
2018-12-19T22:16:34.611Z,4.50
2018-12-19T22:19:02.844Z,4.08
2018-12-19T22:21:31.230Z,3.90
2018-12-19T22:23:59.562Z,3.70
2018-12-19T22:26:27.823Z,3.70
2018-12-19T22:28:56.105Z,3.80
2018-12-19T22:31:24.277Z,4.30
2018-12-19T22:33:52.605Z,4.10
2018-12-19T22:36:20.851Z,3.87
2018-12-19T22:38:49.098Z,3.92
2018-12-19T22:41:17.331Z,3.80
2018-12-19T22:43:45.500Z,3.60
2018-12-19T22:46:13.749Z,3.80
2018-12-19T22:48:42.119Z,3.75
2018-12-19T22:51:10.442Z,3.77
2018-12-19T22:53:38.671Z,3.85
2018-12-19T22:56:06.931Z,3.73
2018-12-19T22:58:35.117Z,3.90
2018-12-19T23:01:09.826Z,3.67
2018-12-19T23:03:43.509Z,3.62
2018-12-19T23:06:11.694Z,3.57
2018-12-19T23:08:39.958Z,3.42
2018-12-19T23:11:08.465Z,3.67
2018-12-19T23:13:36.861Z,3.90
2018-12-19T23:16:05.195Z,4.03
2018-12-19T23:18:33.558Z,4.08
2018-12-19T23:21:01.854Z,3.62
2018-12-19T23:23:30.196Z,4.00
2018-12-19T23:25:58.429Z,4.00
2018-12-19T23:28:26.703Z,3.95
2018-12-19T23:30:55.014Z,3.73
2018-12-19T23:33:23.241Z,4.22
2018-12-19T23:35:51.492Z,3.60
2018-12-19T23:38:19.735Z,4.45
2018-12-19T23:40:47.975Z,3.90
2018-12-19T23:43:16.331Z,3.83
2018-12-19T23:45:44.572Z,3.70
2018-12-19T23:48:13.046Z,3.67
2018-12-19T23:50:41.263Z,4.20
2018-12-19T23:53:09.573Z,3.65
2018-12-19T23:55:37.852Z,3.92
2018-12-19T23:58:06.011Z,4.15
